M/V Cadenza — WDD3063 — position and weather

sailwx.info

Track history (hours):
 
Tides and Currents Weather Stations Pressure Air Temp Water Temp Dewpoint Dewpoint Depression Visibility Wind Speed Wind Dir Waves Ship Positions

M/V Cadenza

Owner: Fulton, David L, Raleigh, NC. More information available from US FCC via Universal Licensing System.

Last reported at 2018-Jul-16 02:17 UTC. Time now 2018-Jul-17 15:14 UTC.
Position N 48°44' W 122°32'.

Length 25 m; draft 2.6 m.

Type: Pleasure craft. MMSI: 367123350.

Date/timePositionNaut miles runAvg speedWind from/ knotsBaromVisibWave heightAir tempDewpointWater temp
2018-Jul-16 02:17N 48°44' W 122°32'0 0.3
2018-Jul-16 01:57N 48°44' W 122°32'3 6.3
2018-Jul-16 01:30N 48°42' W 122°35'13 0.6
2018-Jul-15 03:39N 48°46' W 122°54'0 0.1
2018-Jul-15 03:28N 48°46' W 122°54'0 0.0
2018-Jul-15 02:39N 48°46' W 122°54'0 0.1
2018-Jul-15 02:22N 48°46' W 122°54'0 0.0
2018-Jul-15 02:00N 48°46' W 122°54'0 0.0
2018-Jul-15 01:16N 48°46' W 122°54'0 0.0
2018-Jul-15 00:58N 48°46' W 122°54'  
2018-Jul-12 04:25N 48°45' W 122°31'4 7.5
2018-Jul-12 03:56N 48°42' W 122°32'3 6.1
2018-Jul-12 03:30N 48°39' W 122°32'2 4.0
2018-Jul-12 02:57N 48°37' W 122°33'2 4.2
2018-Jul-12 02:28N 48°39' W 122°32'3 6.8
2018-Jul-12 02:00N 48°42' W 122°32'  
2018-Jul-08 02:21N 48°44' W 122°32'0 0.2
2018-Jul-08 01:59N 48°44' W 122°32'  
Track history (hours):
 
Tides and Currents Weather Stations Pressure Air Temp Water Temp Dewpoint Dewpoint Depression Visibility Wind Speed Wind Dir Waves Ship Positions

M/V Cadenza

Owner: Fulton, David L, Raleigh, NC. More information available from US FCC via Universal Licensing System.

Last reported at 2018-Jul-16 02:17 UTC. Time now 2018-Jul-17 15:14 UTC.
Position N 48°44' W 122°32'.

Length 25 m; draft 2.6 m.

Type: Pleasure craft. MMSI: 367123350.

Date/timePositionNaut miles runAvg speedWind from/ knotsBaromVisibWave heightAir tempDewpointWater temp
2018-Jul-16 02:17N 48°44' W 122°32'0 0.3
2018-Jul-16 01:57N 48°44' W 122°32'3 6.3
2018-Jul-16 01:30N 48°42' W 122°35'13 0.6
2018-Jul-15 03:39N 48°46' W 122°54'0 0.1
2018-Jul-15 03:28N 48°46' W 122°54'0 0.0
2018-Jul-15 02:39N 48°46' W 122°54'0 0.1
2018-Jul-15 02:22N 48°46' W 122°54'0 0.0
2018-Jul-15 02:00N 48°46' W 122°54'0 0.0
2018-Jul-15 01:16N 48°46' W 122°54'0 0.0
2018-Jul-15 00:58N 48°46' W 122°54'  
2018-Jul-12 04:25N 48°45' W 122°31'4 7.5
2018-Jul-12 03:56N 48°42' W 122°32'3 6.1
2018-Jul-12 03:30N 48°39' W 122°32'2 4.0
2018-Jul-12 02:57N 48°37' W 122°33'2 4.2
2018-Jul-12 02:28N 48°39' W 122°32'3 6.8
2018-Jul-12 02:00N 48°42' W 122°32'  
2018-Jul-08 02:21N 48°44' W 122°32'0 0.2
2018-Jul-08 01:59N 48°44' W 122°32'  

Dump ship's entire track history